首页
METAR-TAF:

METAR-TAF

机场 :

托尔马切沃机场

新西伯利亚, 俄罗斯

纬度: 55-01N, 经度: 082-38E, 海拔: 111米

当前天气观测

该预报发布于17分钟前的09:30 UTC
风速8节,风向北转西北
温度 -19°C
湿度 59%
气压 1036 hPa
能见度10公里或以上
少量云层高于1800英尺
散云层高于3300英尺

METAR: UNNT 150930Z 34004MPS 9999 FEW018 SCT033 M19/M25 Q1036 R25/290151 R16/690240 NOSIG RMK QFE767/1023

时间: 16:47 (09:47 UTC)

预报

该预报发布于1小时和47分钟前的08:00 UTC
预报有效从15日的 09点(UTC)到 16日的 09点(UTC)
风速10节,风向北转西北,有时为19节阵风
能见度10公里或以上
散云层高于4000英尺, 积雨云.
短暂存在
从 15日的 09点(UTC)到 15日的 18点(UTC)
能見度: 3100
多云层高于1100英尺, 积雨云.
小阵雪
成为
从 15日的 16点(UTC)到 15日的 18点(UTC)
风速6节,风向西南,有时为16节阵风
成为
从 16日的 01点(UTC)到 16日的 03点(UTC)
风速10节,风向,有时为19节阵风

TAF: UNNT 150800Z 1509/1609 33005G10MPS 9999 SCT040CB TEMPO 1509/1518 3100 -SHSN BKN011CB BECMG 1516/1518 22003G08MPS BECMG 1601/1603 17005G10MPS

超过4000个机场的气象观测和天气预报(METAR&TAF报告)。

可查询的气象台以黄色和红色小点在地图上表示。

将鼠标移到小点上方,可查看气象台名称。

然后点击查看天气观测和预报。

如需切换地图:点击带黑十字的绿色按钮放大地图;点击带横线的绿色按钮缩小地图;或者点击绿色箭头查看邻近地区的地图。


METAR-TAF: